createdAt,value
2023-03-21T00:00:41.964Z,7.44
2023-03-21T00:03:08.538Z,7.23
2023-03-21T00:05:37.413Z,7.14
2023-03-21T00:08:04.724Z,7.42
2023-03-21T00:10:40.789Z,7.69
2023-03-21T00:13:09.962Z,7.59
2023-03-21T00:15:48.364Z,7.29
2023-03-21T00:18:20.469Z,7.18
2023-03-21T00:20:46.867Z,7.53
2023-03-21T00:23:13.337Z,7.79
2023-03-21T00:25:40.297Z,8.02
2023-03-21T00:28:08.817Z,8.00
2023-03-21T00:30:35.384Z,8.08
2023-03-21T00:33:12.105Z,7.88
2023-03-21T00:36:02.264Z,7.86
2023-03-21T00:38:32.154Z,7.56
2023-03-21T00:41:04.703Z,7.24
2023-03-21T00:43:35.342Z,7.01
2023-03-21T00:46:02.950Z,7.16
2023-03-21T00:48:30.567Z,7.28
2023-03-21T00:50:59.113Z,7.48
2023-03-21T00:53:26.703Z,7.69
2023-03-21T00:55:55.295Z,7.94
2023-03-21T00:58:21.744Z,8.01
2023-03-21T01:00:48.226Z,7.81
2023-03-21T01:03:24.460Z,7.80
2023-03-21T01:05:51.715Z,7.85
2023-03-21T01:08:26.499Z,8.01
2023-03-21T01:10:54.934Z,8.21
2023-03-21T01:13:23.597Z,8.31
2023-03-21T01:15:51.191Z,8.37
2023-03-21T01:18:18.707Z,8.35
2023-03-21T01:20:45.300Z,8.26
2023-03-21T01:23:11.893Z,8.26
2023-03-21T01:25:38.634Z,8.24
2023-03-21T01:28:06.050Z,8.02
2023-03-21T01:30:36.971Z,7.35
2023-03-21T01:33:07.291Z,7.36
2023-03-21T01:35:40.946Z,7.39
2023-03-21T01:38:15.528Z,7.19
2023-03-21T01:40:42.127Z,7.03
2023-03-21T01:43:08.701Z,6.89
2023-03-21T01:45:37.447Z,6.81
2023-03-21T01:48:04.916Z,6.89
2023-03-21T01:50:31.493Z,6.75
2023-03-21T01:52:58.295Z,6.73
2023-03-21T01:55:25.741Z,6.75
2023-03-21T01:58:04.268Z,6.89
2023-03-21T02:00:32.058Z,6.99
2023-03-21T02:03:11.337Z,7.13
2023-03-21T02:05:39.475Z,6.94
2023-03-21T02:08:06.074Z,6.94
2023-03-21T02:10:32.540Z,7.05
2023-03-21T02:12:59.000Z,7.08
2023-03-21T02:15:26.571Z,7.24
2023-03-21T02:17:54.162Z,7.29
2023-03-21T02:20:21.744Z,7.53
2023-03-21T02:22:48.585Z,7.31
2023-03-21T02:25:21.785Z,7.29
2023-03-21T02:27:48.790Z,7.51
2023-03-21T02:30:26.459Z,7.74
2023-03-21T02:32:55.758Z,7.90
2023-03-21T02:35:22.191Z,8.03
2023-03-21T02:37:58.230Z,7.73
2023-03-21T02:40:26.458Z,7.56
2023-03-21T02:43:00.008Z,7.62
2023-03-21T02:45:27.756Z,7.65
2023-03-21T02:47:54.261Z,7.70
2023-03-21T02:50:20.947Z,7.77
2023-03-21T02:52:48.528Z,7.84
2023-03-21T02:55:16.131Z,7.80
2023-03-21T02:57:44.081Z,7.74
2023-03-21T03:00:16.765Z,7.65
2023-03-21T03:02:44.914Z,7.68
2023-03-21T03:05:20.449Z,7.70
2023-03-21T03:07:48.129Z,7.63
2023-03-21T03:10:15.714Z,7.56
2023-03-21T03:12:43.350Z,7.43
2023-03-21T03:15:09.818Z,7.31
2023-03-21T03:17:37.504Z,7.18
2023-03-21T03:20:15.459Z,7.17
2023-03-21T03:22:42.719Z,7.30
2023-03-21T03:25:21.347Z,7.40
2023-03-21T03:27:51.351Z,7.58
2023-03-21T03:30:17.844Z,7.68
2023-03-21T03:32:44.296Z,7.79
2023-03-21T03:35:10.751Z,7.88
2023-03-21T03:37:37.170Z,7.91
2023-03-21T03:40:04.915Z,7.93
2023-03-21T03:42:33.919Z,7.87
2023-03-21T03:45:01.122Z,7.61
2023-03-21T03:47:33.699Z,7.61
2023-03-21T03:50:02.594Z,7.63
2023-03-21T03:52:29.086Z,7.48
2023-03-21T03:54:55.508Z,7.35
2023-03-21T03:57:23.114Z,7.42
2023-03-21T03:59:50.711Z,7.51
2023-03-21T04:02:18.383Z,7.55
2023-03-21T04:04:45.988Z,7.50
2023-03-21T04:07:13.677Z,7.34
2023-03-21T04:09:44.598Z,6.87
2023-03-21T04:12:11.858Z,6.50
2023-03-21T04:14:44.437Z,6.57
2023-03-21T04:17:12.402Z,6.66
2023-03-21T04:19:38.883Z,6.76
2023-03-21T04:22:06.283Z,6.78
2023-03-21T04:24:33.849Z,6.56
2023-03-21T04:27:00.746Z,6.15
2023-03-21T04:29:29.476Z,5.97
2023-03-21T04:31:56.704Z,6.17
2023-03-21T04:34:24.262Z,6.12
2023-03-21T04:36:51.797Z,5.98
2023-03-21T04:39:18.246Z,5.86
2023-03-21T04:41:44.684Z,5.77
2023-03-21T04:44:11.148Z,5.77
2023-03-21T04:46:37.608Z,5.92
2023-03-21T04:49:04.739Z,6.12
2023-03-21T04:51:31.342Z,6.42
2023-03-21T04:53:58.928Z,6.71
2023-03-21T04:56:25.353Z,6.94
2023-03-21T04:58:51.794Z,6.98
2023-03-21T05:01:18.261Z,7.06
2023-03-21T05:03:45.270Z,7.06
2023-03-21T05:06:12.857Z,7.08
2023-03-21T05:08:40.436Z,7.00
2023-03-21T05:11:06.886Z,6.62
2023-03-21T05:13:33.355Z,6.40
2023-03-21T05:15:59.828Z,6.46
2023-03-21T05:18:26.801Z,6.53
2023-03-21T05:20:54.419Z,6.61
2023-03-21T05:23:22.025Z,6.74
2023-03-21T05:25:49.604Z,6.85
2023-03-21T05:28:17.213Z,6.87
2023-03-21T05:30:44.875Z,6.98
2023-03-21T05:33:12.417Z,7.00
2023-03-21T05:35:39.360Z,6.83
2023-03-21T05:38:06.562Z,6.92
2023-03-21T05:40:33.136Z,6.99
2023-03-21T05:43:01.754Z,7.13
2023-03-21T05:45:29.531Z,7.28
2023-03-21T05:47:56.007Z,7.43
2023-03-21T05:50:22.582Z,7.58
2023-03-21T05:52:49.002Z,7.64
2023-03-21T05:55:15.478Z,7.45
2023-03-21T05:57:42.351Z,7.29
2023-03-21T06:00:09.157Z,7.24
2023-03-21T06:02:36.879Z,7.13
2023-03-21T06:05:04.366Z,7.25
2023-03-21T06:07:30.995Z,7.43
2023-03-21T06:09:58.582Z,7.61
2023-03-21T06:12:26.175Z,7.74
2023-03-21T06:14:53.028Z,7.83
2023-03-21T06:17:19.482Z,7.91
2023-03-21T06:19:45.910Z,7.88
2023-03-21T06:22:12.386Z,7.95
2023-03-21T06:24:39.117Z,8.02
2023-03-21T06:27:05.934Z,8.09
2023-03-21T06:29:35.441Z,8.16
2023-03-21T06:32:02.121Z,8.23
2023-03-21T06:34:28.718Z,8.29
2023-03-21T06:36:55.306Z,8.37
2023-03-21T06:39:21.757Z,8.41
2023-03-21T06:41:48.288Z,8.45
2023-03-21T06:44:14.743Z,8.50
2023-03-21T06:46:41.683Z,8.54
2023-03-21T06:49:08.343Z,8.51
2023-03-21T06:51:34.934Z,8.29
2023-03-21T06:54:01.740Z,8.12
2023-03-21T06:56:28.149Z,8.21
2023-03-21T06:58:54.779Z,8.40
2023-03-21T07:01:21.262Z,8.56
2023-03-21T07:03:47.716Z,8.72
2023-03-21T07:06:14.140Z,8.82
2023-03-21T07:08:41.246Z,8.87
2023-03-21T07:11:07.849Z,8.93
2023-03-21T07:13:34.268Z,8.94
2023-03-21T07:16:00.716Z,8.92
2023-03-21T07:18:27.125Z,8.96
2023-03-21T07:20:53.546Z,9.01
2023-03-21T07:23:20.969Z,9.09
2023-03-21T07:25:47.429Z,9.15
2023-03-21T07:28:13.885Z,9.16
2023-03-21T07:30:40.304Z,9.19
2023-03-21T07:33:06.944Z,9.16
2023-03-21T07:35:33.395Z,8.98
2023-03-21T07:37:59.861Z,8.99
2023-03-21T07:40:26.315Z,9.10
2023-03-21T07:42:52.719Z,9.17
2023-03-21T07:45:20.710Z,9.16
2023-03-21T07:47:47.564Z,9.24
2023-03-21T07:50:13.954Z,9.39
2023-03-21T07:52:40.412Z,9.48
2023-03-21T07:55:06.842Z,9.65
2023-03-21T07:57:33.297Z,9.75
2023-03-21T07:59:59.692Z,9.85
2023-03-21T08:02:26.238Z,9.92
2023-03-21T08:04:52.741Z,10.01
2023-03-21T08:07:19.147Z,10.05
2023-03-21T08:09:45.538Z,10.15
2023-03-21T08:12:11.961Z,10.15
2023-03-21T08:14:39.377Z,10.06
2023-03-21T08:17:05.827Z,9.97
2023-03-21T08:19:32.606Z,9.88
2023-03-21T08:21:59.007Z,10.09
2023-03-21T08:24:25.447Z,10.14
2023-03-21T08:26:51.860Z,10.20
2023-03-21T08:29:18.277Z,10.39
2023-03-21T08:31:45.584Z,10.54
2023-03-21T08:34:13.168Z,10.65
2023-03-21T08:36:39.774Z,10.71
2023-03-21T08:39:06.248Z,10.84
2023-03-21T08:41:32.677Z,10.90
2023-03-21T08:43:59.072Z,10.94
2023-03-21T08:46:26.164Z,10.92
2023-03-21T08:48:54.731Z,10.96
2023-03-21T08:51:21.311Z,11.03
2023-03-21T08:53:50.891Z,11.15
2023-03-21T08:56:17.524Z,11.33
2023-03-21T08:58:46.087Z,11.47
2023-03-21T09:01:13.700Z,11.66
2023-03-21T09:03:42.925Z,11.79
2023-03-21T09:06:09.599Z,11.76
2023-03-21T09:08:38.639Z,11.80
2023-03-21T09:11:06.067Z,11.90
2023-03-21T09:13:32.672Z,12.03
2023-03-21T09:15:59.133Z,12.12
2023-03-21T09:18:25.564Z,12.25
2023-03-21T09:20:51.967Z,12.31
2023-03-21T09:23:18.546Z,12.42
2023-03-21T09:25:45.036Z,12.43
2023-03-21T09:28:11.441Z,12.42
2023-03-21T09:30:37.881Z,12.39
2023-03-21T09:33:04.297Z,12.24
2023-03-21T09:35:30.725Z,12.34
2023-03-21T09:37:57.124Z,12.49
2023-03-21T09:40:23.729Z,12.62
2023-03-21T09:42:50.173Z,12.52
2023-03-21T09:45:16.542Z,12.35
2023-03-21T09:47:42.986Z,12.41
2023-03-21T09:50:14.881Z,12.58
2023-03-21T09:52:41.710Z,12.66
2023-03-21T09:55:08.121Z,12.80
2023-03-21T09:57:34.537Z,12.82
2023-03-21T10:00:01.034Z,12.98
2023-03-21T10:02:27.434Z,13.08
2023-03-21T10:04:53.857Z,13.21
2023-03-21T10:07:20.320Z,13.07
2023-03-21T10:09:46.720Z,13.14
2023-03-21T10:12:13.121Z,13.27
2023-03-21T10:14:39.538Z,13.44
2023-03-21T10:17:05.966Z,13.29
2023-03-21T10:19:32.410Z,13.42
2023-03-21T10:22:02.062Z,13.58
2023-03-21T10:24:29.723Z,13.67
2023-03-21T10:26:56.186Z,13.72
2023-03-21T10:29:22.646Z,13.79
2023-03-21T10:31:49.167Z,13.59
2023-03-21T10:34:15.726Z,13.56
2023-03-21T10:36:42.147Z,13.34
2023-03-21T10:39:08.601Z,13.50
2023-03-21T10:41:35.027Z,13.56
2023-03-21T10:44:01.485Z,13.63
2023-03-21T10:46:28.130Z,13.58
2023-03-21T10:48:54.730Z,13.73
2023-03-21T10:51:21.226Z,13.70
2023-03-21T10:53:49.004Z,13.69
2023-03-21T10:59:01.012Z,13.92
2023-03-21T11:01:33.137Z,14.18
2023-03-21T11:04:03.468Z,14.28
2023-03-21T11:06:35.375Z,14.49
2023-03-21T11:09:02.828Z,14.13
2023-03-21T11:11:38.705Z,14.26
2023-03-21T11:14:07.676Z,14.40
2023-03-21T11:16:42.785Z,14.42
2023-03-21T11:21:53.695Z,14.07
2023-03-21T11:43:13.820Z,15.05
2023-03-21T11:46:08.177Z,15.32
2023-03-21T11:51:27.678Z,15.44
2023-03-21T12:05:10.375Z,15.71
2023-03-21T12:08:05.275Z,15.71
2023-03-21T12:22:05.449Z,16.25
2023-03-21T12:27:20.341Z,16.36
2023-03-21T12:30:12.793Z,16.47
2023-03-21T12:44:15.125Z,16.45
2023-03-21T12:54:46.327Z,16.83
2023-03-21T12:57:15.583Z,16.83
2023-03-21T12:59:43.361Z,16.94
2023-03-21T13:02:14.245Z,16.99
2023-03-21T13:04:43.465Z,16.87
2023-03-21T13:07:11.314Z,16.77
2023-03-21T13:09:38.516Z,16.98
2023-03-21T13:12:05.498Z,17.08
2023-03-21T13:14:33.108Z,16.69
2023-03-21T13:17:01.822Z,16.74
2023-03-21T13:19:29.291Z,16.55
2023-03-21T13:21:56.883Z,16.43
2023-03-21T13:24:23.615Z,16.67
2023-03-21T13:26:50.277Z,16.87
2023-03-21T13:29:16.877Z,17.03
2023-03-21T13:31:51.756Z,17.12
2023-03-21T13:34:20.101Z,17.20
2023-03-21T13:36:46.564Z,17.28
2023-03-21T13:39:13.302Z,17.44
2023-03-21T13:41:42.145Z,17.53
2023-03-21T13:44:09.630Z,17.75
2023-03-21T13:46:52.556Z,17.84
2023-03-21T13:49:21.820Z,17.93
2023-03-21T13:51:50.384Z,17.90
2023-03-21T13:54:18.976Z,17.96
2023-03-21T13:56:46.639Z,17.92
2023-03-21T13:59:14.180Z,17.95
2023-03-21T14:01:41.110Z,17.78
2023-03-21T14:04:07.723Z,17.86
2023-03-21T14:06:34.961Z,17.92
2023-03-21T14:09:03.570Z,18.09
2023-03-21T14:11:32.297Z,18.22
2023-03-21T14:13:59.770Z,18.21
2023-03-21T14:16:27.332Z,17.92
2023-03-21T14:18:55.621Z,18.07
2023-03-21T14:21:24.705Z,18.12
2023-03-21T14:23:53.181Z,18.14
2023-03-21T14:26:19.783Z,18.18
2023-03-21T14:28:46.416Z,18.06
2023-03-21T14:31:13.073Z,18.07
2023-03-21T14:33:40.649Z,18.10
2023-03-21T14:36:07.209Z,18.16
2023-03-21T14:38:33.905Z,18.15
2023-03-21T14:41:01.453Z,18.22
2023-03-21T14:43:27.909Z,18.24
2023-03-21T14:45:54.475Z,18.26
2023-03-21T14:48:21.346Z,18.15
2023-03-21T14:50:48.806Z,18.15
2023-03-21T14:53:16.437Z,18.27
2023-03-21T14:55:44.013Z,18.32
2023-03-21T14:58:11.616Z,18.33
2023-03-21T15:00:40.490Z,18.14
2023-03-21T15:03:08.061Z,18.14
2023-03-21T15:05:35.432Z,18.23
2023-03-21T15:08:02.981Z,18.36
2023-03-21T15:10:30.592Z,18.28
2023-03-21T15:12:58.273Z,18.36
2023-03-21T15:15:27.591Z,18.44
2023-03-21T15:17:54.458Z,18.49
2023-03-21T15:20:23.146Z,18.42
2023-03-21T15:22:52.182Z,18.20
2023-03-21T15:25:20.328Z,18.09
2023-03-21T15:27:48.899Z,18.05
2023-03-21T15:30:15.663Z,17.95
2023-03-21T15:32:43.249Z,17.90
2023-03-21T15:35:09.698Z,17.94
2023-03-21T15:37:36.610Z,17.80
2023-03-21T15:40:04.191Z,17.31
2023-03-21T15:42:31.839Z,17.33
2023-03-21T15:45:00.982Z,17.43
2023-03-21T15:47:29.040Z,17.44
2023-03-21T15:49:58.282Z,17.39
2023-03-21T15:52:26.263Z,17.42
2023-03-21T15:54:53.878Z,17.38
2023-03-21T15:57:22.469Z,17.27
2023-03-21T15:59:50.064Z,17.04
2023-03-21T16:02:16.917Z,16.49
2023-03-21T16:04:44.342Z,16.62
2023-03-21T16:07:10.838Z,16.79
2023-03-21T16:09:37.494Z,16.94
2023-03-21T16:12:04.137Z,17.08
2023-03-21T16:14:31.740Z,17.16
2023-03-21T16:17:00.332Z,17.24
2023-03-21T16:19:26.938Z,17.32
2023-03-21T16:21:54.535Z,17.33
2023-03-21T16:24:23.134Z,17.23
2023-03-21T16:26:49.734Z,16.84
2023-03-21T16:29:18.309Z,16.77
2023-03-21T16:31:45.928Z,16.49
2023-03-21T16:34:13.483Z,16.62
2023-03-21T16:36:40.120Z,16.65
2023-03-21T16:39:07.689Z,16.78
2023-03-21T16:41:34.271Z,16.67
2023-03-21T16:44:01.852Z,16.74
2023-03-21T16:46:30.077Z,16.79
2023-03-21T16:48:58.105Z,16.70
2023-03-21T16:51:28.498Z,16.66
2023-03-21T16:53:55.326Z,16.64
2023-03-21T16:56:22.991Z,16.52
2023-03-21T16:58:49.410Z,16.47
2023-03-21T17:01:15.912Z,16.49
2023-03-21T17:03:42.377Z,16.24
2023-03-21T17:06:08.839Z,16.14
2023-03-21T17:08:35.260Z,16.20
2023-03-21T17:11:03.335Z,16.15
2023-03-21T17:13:30.407Z,15.82
2023-03-21T17:15:56.789Z,15.87
2023-03-21T17:18:23.260Z,15.86
2023-03-21T17:20:49.660Z,15.33
2023-03-21T17:23:16.059Z,15.04
2023-03-21T17:25:42.471Z,14.92
2023-03-21T17:28:08.867Z,14.87
2023-03-21T17:30:35.358Z,14.48
2023-03-21T17:33:01.822Z,14.36
2023-03-21T17:35:28.282Z,13.79
2023-03-21T17:37:54.738Z,13.41
2023-03-21T17:40:21.134Z,13.10
2023-03-21T17:42:47.541Z,13.00
2023-03-21T17:45:13.953Z,12.87
2023-03-21T17:47:40.378Z,12.88
2023-03-21T17:50:06.832Z,13.18
2023-03-21T17:52:33.286Z,13.47
2023-03-21T17:54:59.701Z,13.73
2023-03-21T17:57:26.135Z,13.99
2023-03-21T17:59:52.566Z,14.16
2023-03-21T18:02:18.991Z,14.24
2023-03-21T18:04:45.472Z,14.23
2023-03-21T18:07:15.365Z,14.24
2023-03-21T18:09:42.793Z,14.30
2023-03-21T18:12:09.251Z,14.41
2023-03-21T18:14:40.360Z,14.45
2023-03-21T18:17:06.985Z,14.46
2023-03-21T18:19:33.409Z,14.42
2023-03-21T18:21:59.780Z,14.39
2023-03-21T18:24:26.172Z,14.37
2023-03-21T18:26:52.593Z,14.29
2023-03-21T18:30:15.727Z,14.30
2023-03-21T18:32:07.585Z,14.28
2023-03-21T18:34:34.573Z,14.25
2023-03-21T18:37:03.972Z,14.17
2023-03-21T18:39:30.717Z,14.13
2023-03-21T18:41:57.916Z,14.11
2023-03-21T18:44:24.517Z,13.61
2023-03-21T18:46:51.751Z,13.46
2023-03-21T18:50:02.126Z,13.12
2023-03-21T18:52:04.651Z,12.75
2023-03-21T18:54:31.118Z,12.39
2023-03-21T18:59:43.876Z,12.49
2023-03-21T19:02:10.531Z,12.38
2023-03-21T19:04:37.547Z,12.70
2023-03-21T19:07:04.118Z,13.00
2023-03-21T19:09:32.156Z,13.11
2023-03-21T19:11:58.665Z,13.35
2023-03-21T19:14:25.075Z,13.55
2023-03-21T19:19:37.915Z,13.65
2023-03-21T19:22:04.408Z,13.74
2023-03-21T19:24:31.287Z,13.85
2023-03-21T19:26:57.763Z,13.86
2023-03-21T19:29:24.896Z,13.96
2023-03-21T19:31:51.537Z,14.05
2023-03-21T19:34:18.009Z,14.18
2023-03-21T19:36:46.064Z,14.21
2023-03-21T19:39:17.091Z,13.96
2023-03-21T19:41:44.549Z,13.25
2023-03-21T19:44:11.006Z,12.70
2023-03-21T19:46:37.585Z,12.83
2023-03-21T19:49:03.990Z,13.08
2023-03-21T19:51:30.930Z,13.33
2023-03-21T19:53:57.483Z,13.52
2023-03-21T19:56:27.082Z,13.57
2023-03-21T19:58:54.019Z,13.48
2023-03-21T20:01:20.610Z,13.49
2023-03-21T20:03:47.074Z,13.61
2023-03-21T20:06:13.476Z,13.70
2023-03-21T20:11:26.271Z,13.95
2023-03-21T20:13:52.652Z,13.54
2023-03-21T20:16:20.398Z,13.26
2023-03-21T20:18:47.024Z,13.33
2023-03-21T20:21:17.950Z,13.52
2023-03-21T20:23:44.781Z,13.61
2023-03-21T20:26:11.167Z,13.43
2023-03-21T20:28:38.275Z,13.02
2023-03-21T20:31:04.829Z,12.45
2023-03-21T20:33:31.265Z,12.38
2023-03-21T20:38:44.037Z,12.60
2023-03-21T20:41:10.433Z,12.97
2023-03-21T20:44:20.771Z,13.30
2023-03-21T20:46:23.250Z,13.58
2023-03-21T20:48:49.676Z,13.76
2023-03-21T20:54:02.526Z,13.58
2023-03-21T20:56:28.925Z,13.38
2023-03-21T20:59:11.864Z,13.48
2023-03-21T21:01:41.246Z,13.69
2023-03-21T21:04:09.453Z,13.75
2023-03-21T21:06:35.993Z,13.86
2023-03-21T21:09:02.396Z,13.88
2023-03-21T21:14:15.187Z,13.60
2023-03-21T21:16:41.593Z,13.20
2023-03-21T21:19:08.008Z,13.27
2023-03-21T21:21:34.488Z,13.32
2023-03-21T21:24:00.867Z,13.22
2023-03-21T21:26:27.258Z,13.31
2023-03-21T21:28:53.714Z,13.35
2023-03-21T21:31:20.191Z,13.36
2023-03-21T21:33:46.703Z,13.46
2023-03-21T21:36:13.084Z,13.48
2023-03-21T21:38:39.451Z,13.50
2023-03-21T21:41:05.841Z,13.53
2023-03-21T21:43:32.235Z,13.43
2023-03-21T21:45:58.665Z,13.21
2023-03-21T21:48:25.068Z,12.70
2023-03-21T21:50:51.455Z,12.37
2023-03-21T21:53:17.848Z,12.36
2023-03-21T21:55:44.216Z,12.28
2023-03-21T21:58:10.613Z,12.35
2023-03-21T22:00:37.209Z,12.62
2023-03-21T22:03:03.907Z,12.86
2023-03-21T22:05:30.339Z,13.04
2023-03-21T22:07:56.743Z,13.04
2023-03-21T22:10:23.379Z,12.36
2023-03-21T22:12:49.820Z,12.01
2023-03-21T22:15:16.225Z,11.86
2023-03-21T22:17:42.684Z,11.69
2023-03-21T22:20:09.088Z,11.58
2023-03-21T22:22:35.498Z,11.79
2023-03-21T22:25:01.953Z,11.85
2023-03-21T22:27:28.367Z,11.70
2023-03-21T22:29:54.766Z,11.54
2023-03-21T22:32:21.268Z,11.41
2023-03-21T22:34:47.661Z,11.29
2023-03-21T22:37:14.043Z,11.27
2023-03-21T22:39:40.455Z,11.14
2023-03-21T22:42:06.834Z,11.10
2023-03-21T22:44:33.385Z,11.17
2023-03-21T22:46:59.792Z,11.31
2023-03-21T22:49:26.218Z,11.28
2023-03-21T22:51:52.644Z,11.41
2023-03-21T22:54:19.039Z,11.26
2023-03-21T22:56:45.453Z,11.30
2023-03-21T22:59:11.843Z,11.41
2023-03-21T23:01:38.259Z,11.23
2023-03-21T23:04:04.711Z,11.14
2023-03-21T23:06:31.151Z,11.23
2023-03-21T23:08:57.574Z,11.35
2023-03-21T23:11:24.005Z,11.12
2023-03-21T23:14:05.075Z,10.85
2023-03-21T23:16:33.456Z,10.84
2023-03-21T23:18:59.835Z,10.74
2023-03-21T23:21:26.209Z,10.75
2023-03-21T23:23:52.736Z,10.68
2023-03-21T23:26:19.121Z,10.75
2023-03-21T23:28:45.510Z,10.70
2023-03-21T23:31:11.952Z,10.77
2023-03-21T23:33:38.364Z,10.69
2023-03-21T23:36:04.752Z,10.57
2023-03-21T23:38:31.133Z,10.47
2023-03-21T23:40:57.538Z,10.42
2023-03-21T23:43:23.965Z,10.33
2023-03-21T23:45:50.372Z,10.25
2023-03-21T23:48:16.864Z,10.25
2023-03-21T23:50:43.314Z,10.28
2023-03-21T23:53:09.701Z,10.17
2023-03-21T23:55:36.125Z,10.09
2023-03-21T23:58:02.552Z,10.13
